createdAt,value
2018-07-16T00:01:11.279Z,70.60
2018-07-16T00:03:43.491Z,69.38
2018-07-16T00:06:14.065Z,68.62
2018-07-16T00:08:44.544Z,68.46
2018-07-16T00:11:15.084Z,67.84
2018-07-16T00:13:45.699Z,68.13
2018-07-16T00:16:16.219Z,67.63
2018-07-16T00:18:46.697Z,67.31
2018-07-16T00:21:17.669Z,67.13
2018-07-16T00:23:49.093Z,67.20
2018-07-16T00:26:19.631Z,66.87
2018-07-16T00:28:50.295Z,67.20
2018-07-16T00:31:20.758Z,67.33
2018-07-16T00:33:51.406Z,67.06
2018-07-16T00:36:21.947Z,67.11
2018-07-16T00:38:52.586Z,68.33
2018-07-16T00:41:24.608Z,68.61
2018-07-16T00:43:55.925Z,69.50
2018-07-16T00:46:26.496Z,70.24
2018-07-16T00:48:56.883Z,71.57
2018-07-16T00:51:27.426Z,72.46
2018-07-16T00:53:57.810Z,72.48
2018-07-16T00:56:28.638Z,72.83
2018-07-16T00:58:59.553Z,73.20
2018-07-16T01:01:30.822Z,73.96
2018-07-16T01:04:01.322Z,74.05
2018-07-16T01:06:32.000Z,74.16
2018-07-16T01:09:02.776Z,74.30
2018-07-16T01:11:33.322Z,73.80
2018-07-16T01:14:03.863Z,73.71
2018-07-16T01:16:34.332Z,73.33
2018-07-16T01:19:05.421Z,73.01
2018-07-16T01:21:36.738Z,74.10
2018-07-16T01:24:07.280Z,73.77
2018-07-16T01:26:37.717Z,73.82
2018-07-16T01:29:08.224Z,74.85
2018-07-16T01:31:38.764Z,74.87
2018-07-16T01:34:09.610Z,75.07
2018-07-16T01:36:40.077Z,73.87
2018-07-16T01:39:12.012Z,73.05
2018-07-16T01:41:42.937Z,73.31
2018-07-16T01:44:12.935Z,73.73
2018-07-16T01:46:43.545Z,72.89
2018-07-16T01:49:13.997Z,72.12
2018-07-16T01:51:44.588Z,71.51
2018-07-16T01:54:15.010Z,71.90
2018-07-16T01:56:45.581Z,72.26
2018-07-16T01:59:17.682Z,72.50
2018-07-16T02:01:48.462Z,72.37
2018-07-16T02:04:19.437Z,72.62
2018-07-16T02:06:50.017Z,72.58
2018-07-16T02:09:21.517Z,72.34
2018-07-16T02:11:52.019Z,72.37
2018-07-16T02:14:22.662Z,71.81
2018-07-16T02:16:53.595Z,71.38
2018-07-16T02:19:24.860Z,70.88
2018-07-16T02:21:55.313Z,70.95
2018-07-16T02:24:25.932Z,71.24
2018-07-16T02:26:56.819Z,71.28
2018-07-16T02:29:27.513Z,71.96
2018-07-16T02:31:58.186Z,71.99
2018-07-16T02:34:28.718Z,72.38
2018-07-16T02:36:59.759Z,72.25
2018-07-16T02:39:30.733Z,72.61
2018-07-16T02:42:01.447Z,73.59
2018-07-16T02:44:32.058Z,74.91
2018-07-16T02:47:02.637Z,75.87
2018-07-16T02:49:33.130Z,76.73
2018-07-16T02:52:03.710Z,76.82
2018-07-16T02:54:34.514Z,76.93
2018-07-16T02:57:05.750Z,76.73
2018-07-16T02:59:35.716Z,74.57
2018-07-16T03:02:06.497Z,73.97
2018-07-16T03:04:37.000Z,73.26
2018-07-16T03:07:08.078Z,72.45
2018-07-16T03:09:38.589Z,73.35
2018-07-16T03:12:09.309Z,72.72
2018-07-16T03:14:40.113Z,73.04
2018-07-16T03:17:12.064Z,73.86
2018-07-16T03:19:42.727Z,75.37
2018-07-16T03:22:13.265Z,75.80
2018-07-16T03:24:44.174Z,76.58
2018-07-16T03:27:14.731Z,77.27
2018-07-16T03:29:45.982Z,77.45
2018-07-16T03:32:16.611Z,77.56
2018-07-16T03:34:48.005Z,77.36
2018-07-16T03:37:18.904Z,77.24
2018-07-16T03:39:49.626Z,77.21
2018-07-16T03:42:20.127Z,77.26
2018-07-16T03:44:50.796Z,77.29
2018-07-16T03:47:20.886Z,77.37
2018-07-16T03:49:51.469Z,77.59
2018-07-16T03:52:21.494Z,78.00
2018-07-16T03:54:52.768Z,78.08
2018-07-16T03:57:23.939Z,77.91
2018-07-16T03:59:55.298Z,78.21
2018-07-16T04:02:25.991Z,78.14
2018-07-16T04:04:56.834Z,78.32
2018-07-16T04:07:27.403Z,78.32
2018-07-16T04:09:58.106Z,78.49
2018-07-16T04:12:29.480Z,78.31
2018-07-16T04:15:00.655Z,77.99
2018-07-16T04:17:30.737Z,77.59
2018-07-16T04:20:01.389Z,77.49
2018-07-16T04:22:31.869Z,77.42
2018-07-16T04:25:02.457Z,76.47
2018-07-16T04:27:32.907Z,75.79
2018-07-16T04:30:04.111Z,74.44
2018-07-16T04:32:35.589Z,74.50
2018-07-16T04:35:06.120Z,75.07
2018-07-16T04:37:36.772Z,75.21
2018-07-16T04:40:07.294Z,74.71
2018-07-16T04:42:37.921Z,75.07
2018-07-16T04:45:08.008Z,75.28
2018-07-16T04:47:38.505Z,75.11
2018-07-16T04:50:09.346Z,75.07
2018-07-16T04:52:40.599Z,74.36
2018-07-16T04:55:11.311Z,73.52
2018-07-16T04:57:41.665Z,73.06
2018-07-16T05:00:12.298Z,72.00
2018-07-16T05:02:42.763Z,71.09
2018-07-16T05:05:13.390Z,69.92
2018-07-16T05:07:43.798Z,69.49
2018-07-16T05:10:15.017Z,68.73
2018-07-16T05:12:46.656Z,68.98
2018-07-16T05:15:17.335Z,68.75
2018-07-16T05:17:47.841Z,69.45
2018-07-16T05:20:18.549Z,69.09
2018-07-16T05:22:48.970Z,68.92
2018-07-16T05:25:19.612Z,69.47
2018-07-16T05:27:49.806Z,69.70
2018-07-16T05:30:21.263Z,69.21
2018-07-16T05:32:51.798Z,68.72
2018-07-16T05:35:22.725Z,68.23
2018-07-16T05:37:53.335Z,68.90
2018-07-16T05:40:24.972Z,68.40
2018-07-16T05:42:56.223Z,67.87
2018-07-16T05:45:26.387Z,66.20
2018-07-16T05:47:57.140Z,66.05
2018-07-16T05:50:27.869Z,65.25
2018-07-16T05:52:58.561Z,64.75
2018-07-16T05:55:29.186Z,64.22
2018-07-16T05:58:00.342Z,63.67
2018-07-16T06:00:31.931Z,62.79
2018-07-16T06:03:02.826Z,61.95
2018-07-16T06:05:38.007Z,60.11
2018-07-16T06:08:08.975Z,59.17
2018-07-16T06:10:39.363Z,59.84
2018-07-16T06:13:09.851Z,58.45
2018-07-16T06:15:40.531Z,58.26
2018-07-16T06:18:13.717Z,56.72
2018-07-16T06:20:45.181Z,54.71
2018-07-16T06:23:15.636Z,53.55
2018-07-16T06:25:45.707Z,54.69
2018-07-16T06:28:16.777Z,52.43
2018-07-16T06:30:47.427Z,50.41
2018-07-16T06:33:18.080Z,47.98
2018-07-16T06:35:48.626Z,47.68
2018-07-16T06:38:20.576Z,46.46
2018-07-16T06:40:51.765Z,48.39
2018-07-16T06:43:22.178Z,48.38
2018-07-16T06:45:52.681Z,48.59
2018-07-16T06:48:23.129Z,48.67
2018-07-16T06:50:53.974Z,46.05
2018-07-16T06:53:24.673Z,46.63
2018-07-16T06:55:55.677Z,47.15
2018-07-16T06:58:27.500Z,48.54
2018-07-16T07:00:58.064Z,46.87
2018-07-16T07:03:28.245Z,44.16
2018-07-16T07:05:59.108Z,43.69
2018-07-16T07:08:29.730Z,43.92
2018-07-16T07:11:00.373Z,44.67
2018-07-16T07:13:31.042Z,43.99
2018-07-16T07:16:02.767Z,43.01
2018-07-16T07:18:34.046Z,43.73
2018-07-16T07:21:04.790Z,43.29
2018-07-16T07:23:35.457Z,41.14
2018-07-16T07:26:06.786Z,39.58
2018-07-16T07:28:37.474Z,37.70
2018-07-16T07:31:08.882Z,38.54
2018-07-16T07:33:39.417Z,39.85
2018-07-16T07:36:11.111Z,43.03
2018-07-16T07:38:41.967Z,43.46
2018-07-16T07:41:12.753Z,41.66
2018-07-16T07:43:43.522Z,41.13
2018-07-16T07:46:14.441Z,40.31
2018-07-16T07:48:52.167Z,38.22
2018-07-16T07:51:24.062Z,37.46
2018-07-16T07:53:55.673Z,38.43
2018-07-16T07:56:27.448Z,38.79
2018-07-16T07:58:58.617Z,37.40
2018-07-16T08:01:29.496Z,36.97
2018-07-16T08:04:00.149Z,36.00
2018-07-16T08:06:30.852Z,34.37
2018-07-16T08:09:02.839Z,32.09
2018-07-16T08:11:34.304Z,32.86
2018-07-16T08:14:05.063Z,35.34
2018-07-16T08:16:35.867Z,35.56
2018-07-16T08:19:06.776Z,34.79
2018-07-16T08:21:37.705Z,34.79
2018-07-16T08:24:08.965Z,36.82
2018-07-16T08:26:40.323Z,37.54
2018-07-16T08:29:12.150Z,37.19
2018-07-16T08:31:42.878Z,40.80
2018-07-16T08:34:13.789Z,38.40
2018-07-16T08:36:44.752Z,40.79
2018-07-16T08:39:16.049Z,42.84
2018-07-16T08:41:46.814Z,44.21
2018-07-16T08:44:18.367Z,42.14
2018-07-16T08:46:49.772Z,39.71
2018-07-16T08:49:21.234Z,42.32
2018-07-16T08:51:52.231Z,42.39
2018-07-16T08:54:23.555Z,42.36
2018-07-16T08:56:54.606Z,38.95
2018-07-16T08:59:26.146Z,37.20
2018-07-16T09:01:58.303Z,35.13
2018-07-16T09:04:29.458Z,33.72
2018-07-16T09:07:00.480Z,37.96
2018-07-16T09:09:31.495Z,35.69
2018-07-16T09:12:02.103Z,37.31
2018-07-16T09:14:32.897Z,41.36
2018-07-16T09:17:05.053Z,40.73
2018-07-16T09:19:36.356Z,42.04
2018-07-16T09:22:07.146Z,40.96
2018-07-16T09:24:37.721Z,40.51
2018-07-16T09:27:08.233Z,44.05
2018-07-16T09:29:39.064Z,44.70
2018-07-16T09:32:10.801Z,43.68
2018-07-16T09:34:41.290Z,43.19
2018-07-16T09:37:13.449Z,42.52
2018-07-16T09:39:45.351Z,42.33
2018-07-16T09:42:16.022Z,44.27
2018-07-16T09:44:47.179Z,44.19
2018-07-16T09:47:18.056Z,47.37
2018-07-16T09:49:49.372Z,46.59
2018-07-16T09:52:20.026Z,45.77
2018-07-16T09:55:03.942Z,45.58
2018-07-16T09:57:36.154Z,46.20
2018-07-16T10:00:07.867Z,46.24
2018-07-16T10:02:39.176Z,46.63
2018-07-16T10:05:12.613Z,46.68
2018-07-16T10:07:43.645Z,48.37
2018-07-16T10:10:15.045Z,49.73
2018-07-16T10:12:46.101Z,47.26
2018-07-16T10:15:16.869Z,48.04
2018-07-16T10:17:47.577Z,46.80
2018-07-16T10:20:18.910Z,48.28
2018-07-16T10:23:13.537Z,48.27
2018-07-16T10:25:44.718Z,46.71
2018-07-16T10:28:15.996Z,47.51
2018-07-16T10:30:49.441Z,49.31
2018-07-16T10:33:35.047Z,48.63
2018-07-16T10:36:05.816Z,49.04
2018-07-16T10:38:40.299Z,50.14
2018-07-16T10:41:10.981Z,51.94
2018-07-16T10:43:44.103Z,53.08
2018-07-16T10:46:15.891Z,52.38
2018-07-16T10:48:46.882Z,53.41
2018-07-16T10:51:18.048Z,53.26
2018-07-16T10:53:49.553Z,52.73
2018-07-16T10:56:20.624Z,53.07
2018-07-16T10:58:51.909Z,54.23
2018-07-16T11:01:23.010Z,54.54
2018-07-16T11:03:54.577Z,55.00
2018-07-16T11:06:26.212Z,55.54
2018-07-16T11:08:57.619Z,55.82
2018-07-16T11:11:28.413Z,55.74
2018-07-16T11:13:59.099Z,55.50
2018-07-16T11:16:29.236Z,55.52
2018-07-16T11:18:59.798Z,57.54
2018-07-16T11:21:31.491Z,55.48
2018-07-16T11:24:03.958Z,56.50
2018-07-16T11:26:34.842Z,57.02
2018-07-16T11:29:06.003Z,57.05
2018-07-16T11:31:36.481Z,56.13
2018-07-16T11:34:07.261Z,55.17
2018-07-16T11:36:37.259Z,55.27
2018-07-16T11:39:09.572Z,55.11
2018-07-16T11:41:40.489Z,55.79
2018-07-16T11:44:12.315Z,54.60
2018-07-16T11:46:43.045Z,57.86
2018-07-16T11:49:14.013Z,58.18
2018-07-16T11:51:44.897Z,56.61
2018-07-16T11:54:17.108Z,55.36
2018-07-16T11:56:48.486Z,55.41
2018-07-16T11:59:19.162Z,55.68
2018-07-16T12:01:51.101Z,57.41
2018-07-16T12:04:22.080Z,55.56
2018-07-16T12:06:53.508Z,54.62
2018-07-16T12:09:24.207Z,54.06
2018-07-16T12:11:56.175Z,53.44
2018-07-16T12:14:26.906Z,52.18
2018-07-16T12:17:01.796Z,52.20
2018-07-16T12:19:36.345Z,50.56
2018-07-16T12:22:09.116Z,51.48
2018-07-16T12:24:41.606Z,50.75
2018-07-16T12:27:13.799Z,52.61
2018-07-16T12:29:44.940Z,52.99
2018-07-16T12:32:17.859Z,54.24
2018-07-16T12:34:51.138Z,53.64
2018-07-16T12:37:24.937Z,53.99
2018-07-16T12:39:57.332Z,53.59
2018-07-16T12:42:30.566Z,52.96
2018-07-16T12:45:03.648Z,51.10
2018-07-16T12:47:36.498Z,49.39
2018-07-16T12:50:09.565Z,49.51
2018-07-16T12:55:15.900Z,48.76
2018-07-16T12:57:47.730Z,47.93
2018-07-16T13:00:18.832Z,47.79
2018-07-16T13:02:50.642Z,47.26
2018-07-16T13:05:21.735Z,48.35
2018-07-16T13:07:53.610Z,46.28
2018-07-16T13:10:24.273Z,47.17
2018-07-16T13:12:55.971Z,48.21
2018-07-16T13:15:30.118Z,47.14
2018-07-16T13:18:01.645Z,47.11
2018-07-16T13:20:33.692Z,44.30
2018-07-16T13:23:04.328Z,45.95
2018-07-16T13:25:36.400Z,45.25
2018-07-16T13:28:07.332Z,45.13
2018-07-16T13:30:38.194Z,44.47
2018-07-16T13:33:08.495Z,45.52
2018-07-16T13:35:39.527Z,45.91
2018-07-16T13:38:11.402Z,46.70
2018-07-16T13:40:42.415Z,47.21
2018-07-16T13:43:13.951Z,47.37
2018-07-16T13:45:45.002Z,48.15
2018-07-16T13:48:15.795Z,50.56
2018-07-16T13:50:47.633Z,51.07
2018-07-16T13:53:18.666Z,51.69
2018-07-16T13:55:50.584Z,52.92
2018-07-16T13:58:21.766Z,53.91
2018-07-16T14:00:53.249Z,53.77
2018-07-16T14:03:24.441Z,53.39
2018-07-16T14:05:55.723Z,53.25
2018-07-16T14:08:26.861Z,53.86
2018-07-16T14:10:57.639Z,53.23
2018-07-16T14:13:29.218Z,54.88
2018-07-16T14:16:00.779Z,54.43
2018-07-16T14:18:31.951Z,54.83
2018-07-16T14:21:05.067Z,54.92
2018-07-16T14:23:36.157Z,54.65
2018-07-16T14:26:07.956Z,55.04
2018-07-16T14:28:39.016Z,54.03
2018-07-16T14:31:11.099Z,53.80
2018-07-16T14:33:44.041Z,53.74
2018-07-16T14:36:15.128Z,53.32
2018-07-16T14:38:46.159Z,54.73
2018-07-16T14:41:17.493Z,56.03
2018-07-16T14:43:49.796Z,56.62
2018-07-16T14:46:20.699Z,56.39
2018-07-16T14:48:53.405Z,56.35
2018-07-16T14:51:24.389Z,56.27
2018-07-16T14:53:55.044Z,53.92
2018-07-16T14:56:26.949Z,53.45
2018-07-16T14:58:58.927Z,51.73
2018-07-16T15:01:29.919Z,52.83
2018-07-16T15:04:01.507Z,53.09
2018-07-16T15:06:33.840Z,53.82
2018-07-16T15:09:09.363Z,54.11
2018-07-16T15:11:40.511Z,53.68
2018-07-16T15:14:11.941Z,52.92
2018-07-16T15:16:43.628Z,53.75
2018-07-16T15:19:15.634Z,53.52
2018-07-16T15:21:50.958Z,53.45
2018-07-16T15:24:22.402Z,53.91
2018-07-16T15:26:53.210Z,54.00
2018-07-16T15:29:24.159Z,53.42
2018-07-16T15:31:54.879Z,53.76
2018-07-16T15:34:25.834Z,53.30
2018-07-16T15:36:58.474Z,52.34
2018-07-16T15:39:30.211Z,51.47
2018-07-16T15:42:01.571Z,51.96
2018-07-16T15:44:46.923Z,50.29
2018-07-16T15:47:23.660Z,50.13
2018-07-16T15:49:55.354Z,48.99
2018-07-16T15:52:42.257Z,48.60
2018-07-16T15:55:18.527Z,48.66
2018-07-16T15:57:54.937Z,49.99
2018-07-16T16:00:26.936Z,50.63
2018-07-16T16:02:58.309Z,51.41
2018-07-16T16:05:32.591Z,51.91
2018-07-16T16:08:04.604Z,48.48
2018-07-16T16:10:37.819Z,49.82
2018-07-16T16:13:08.913Z,48.92
2018-07-16T16:15:41.709Z,49.46
2018-07-16T16:18:12.947Z,50.04
2018-07-16T16:20:44.729Z,51.03
2018-07-16T16:23:16.102Z,50.52
2018-07-16T16:25:47.337Z,52.40
2018-07-16T16:28:20.899Z,50.91
2018-07-16T16:30:52.294Z,43.71
2018-07-16T16:33:23.169Z,41.86
2018-07-16T16:35:55.602Z,40.46
2018-07-16T16:38:27.279Z,40.38
2018-07-16T16:40:58.878Z,40.44
2018-07-16T16:43:30.915Z,40.95
2018-07-16T16:46:02.800Z,41.42
2018-07-16T16:48:33.729Z,41.94
2018-07-16T16:51:05.659Z,42.04
2018-07-16T16:53:36.728Z,42.42
2018-07-16T16:56:09.157Z,42.19
2018-07-16T16:58:45.543Z,43.42
2018-07-16T17:01:18.282Z,43.17
2018-07-16T17:03:51.601Z,44.16
2018-07-16T17:06:22.948Z,44.13
2018-07-16T17:08:53.403Z,44.32
2018-07-16T17:11:25.242Z,43.77
2018-07-16T17:13:58.174Z,44.32
2018-07-16T17:16:30.504Z,44.53
2018-07-16T17:19:05.462Z,44.33
2018-07-16T17:21:38.691Z,44.54
2018-07-16T17:24:11.862Z,45.42
2018-07-16T17:26:48.188Z,45.03
2018-07-16T17:29:21.713Z,45.20
2018-07-16T17:31:53.989Z,45.50
2018-07-16T17:34:26.458Z,45.56
2018-07-16T17:36:58.685Z,46.37
2018-07-16T17:39:31.701Z,46.68
2018-07-16T17:42:03.819Z,46.69
2018-07-16T17:44:36.618Z,46.28
2018-07-16T17:47:09.856Z,47.65
2018-07-16T17:49:41.122Z,48.71
2018-07-16T17:52:11.978Z,48.62
2018-07-16T17:54:51.279Z,48.50
2018-07-16T17:57:22.089Z,47.92
2018-07-16T18:00:00.031Z,48.42
2018-07-16T18:02:36.539Z,47.84
2018-07-16T18:05:10.491Z,47.62
2018-07-16T18:07:42.924Z,48.17
2018-07-16T18:10:17.585Z,48.31
2018-07-16T18:12:49.091Z,48.61
2018-07-16T18:15:19.984Z,48.45
2018-07-16T18:17:51.396Z,49.68
2018-07-16T18:20:23.141Z,49.87
2018-07-16T18:22:53.994Z,50.14
2018-07-16T18:25:25.213Z,51.11
2018-07-16T18:27:57.126Z,51.17
2018-07-16T18:30:28.349Z,51.97
2018-07-16T18:32:59.883Z,52.30
2018-07-16T18:35:32.212Z,52.71
2018-07-16T18:38:04.560Z,53.05
2018-07-16T18:40:35.845Z,53.16
2018-07-16T18:43:09.317Z,54.61
2018-07-16T18:45:40.857Z,54.29
2018-07-16T18:48:13.074Z,55.39
2018-07-16T18:50:46.085Z,55.34
2018-07-16T18:53:19.599Z,55.62
2018-07-16T18:55:51.297Z,56.34
2018-07-16T18:58:23.315Z,56.45
2018-07-16T19:00:55.640Z,56.44
2018-07-16T19:03:27.944Z,56.12
2018-07-16T19:06:01.708Z,56.60
2018-07-16T19:08:34.687Z,56.58
2018-07-16T19:11:08.544Z,56.61
2018-07-16T19:13:41.846Z,55.70
2018-07-16T19:16:14.052Z,55.84
2018-07-16T19:18:46.575Z,56.86
2018-07-16T19:21:19.345Z,57.72
2018-07-16T19:23:51.214Z,58.74
2018-07-16T19:26:23.430Z,58.77
2018-07-16T19:28:55.199Z,58.77
2018-07-16T19:31:27.752Z,65.77
2018-07-16T19:34:01.084Z,71.24
2018-07-16T19:36:34.472Z,67.88
2018-07-16T19:39:07.828Z,70.43
2018-07-16T19:41:41.236Z,75.28
2018-07-16T20:38:16.023Z,86.01
2018-07-16T20:40:48.791Z,85.92
2018-07-16T20:43:20.624Z,85.09
2018-07-16T20:45:53.484Z,85.97
2018-07-16T20:48:25.747Z,85.52
2018-07-16T20:50:57.669Z,85.84
2018-07-16T20:53:30.101Z,86.70
2018-07-16T20:56:01.680Z,86.30
2018-07-16T20:58:33.485Z,85.66
2018-07-16T21:01:05.361Z,85.37
2018-07-16T21:03:36.567Z,85.79
2018-07-16T21:06:07.727Z,86.72
2018-07-16T21:08:38.376Z,84.75
2018-07-16T21:11:09.615Z,84.57
2018-07-16T21:13:40.703Z,83.13
2018-07-16T21:16:11.859Z,83.28
2018-07-16T21:18:43.021Z,83.08
2018-07-16T21:21:15.964Z,83.23
2018-07-16T21:23:48.515Z,83.83
2018-07-16T21:26:20.304Z,84.19
2018-07-16T21:28:51.150Z,83.71
2018-07-16T21:31:26.045Z,83.41
2018-07-16T21:33:57.022Z,84.16
2018-07-16T21:36:28.176Z,84.06
2018-07-16T21:38:58.738Z,84.82
2018-07-16T21:41:28.952Z,85.05
2018-07-16T21:44:00.316Z,84.81
2018-07-16T21:46:31.259Z,85.00
2018-07-16T21:49:05.296Z,84.94
2018-07-16T21:51:36.223Z,85.46
2018-07-16T21:54:08.896Z,84.84
2018-07-16T21:56:39.867Z,84.72
2018-07-16T21:59:10.563Z,84.82
2018-07-16T22:01:41.790Z,84.86
2018-07-16T22:04:12.499Z,85.61
2018-07-16T22:06:42.697Z,86.25
2018-07-16T22:09:13.422Z,85.57
2018-07-16T22:11:44.942Z,86.66
2018-07-16T22:14:17.677Z,86.60
2018-07-16T22:16:49.005Z,86.55
2018-07-16T22:19:21.109Z,86.07
2018-07-16T22:21:52.849Z,86.43
2018-07-16T22:25:01.288Z,85.97
2018-07-16T22:27:32.140Z,86.08
2018-07-16T22:30:02.747Z,84.49
2018-07-16T22:32:52.557Z,83.69
2018-07-16T22:35:23.645Z,83.21
2018-07-16T22:37:54.416Z,83.87
2018-07-16T22:40:25.991Z,84.13
2018-07-16T22:42:56.761Z,83.91
2018-07-16T22:45:27.678Z,83.77
2018-07-16T22:47:58.409Z,84.33
2018-07-16T22:50:29.085Z,83.95
2018-07-16T22:52:59.656Z,83.82
2018-07-16T22:55:30.353Z,84.64
2018-07-16T22:58:00.976Z,84.54
2018-07-16T23:00:31.678Z,84.82
2018-07-16T23:03:02.371Z,84.70
2018-07-16T23:05:33.443Z,84.99
2018-07-16T23:08:05.026Z,85.13
2018-07-16T23:10:35.653Z,85.09
2018-07-16T23:13:06.210Z,85.78
2018-07-16T23:15:37.156Z,85.84
2018-07-16T23:18:07.798Z,86.42
2018-07-16T23:20:38.337Z,87.03
2018-07-16T23:23:08.731Z,87.10
2018-07-16T23:25:40.029Z,86.43
2018-07-16T23:28:10.491Z,87.31
2018-07-16T23:30:41.740Z,87.91
2018-07-16T23:33:11.734Z,88.67
2018-07-16T23:35:43.278Z,90.08
2018-07-16T23:38:13.767Z,90.26
2018-07-16T23:40:44.547Z,89.69
2018-07-16T23:43:14.730Z,90.93
2018-07-16T23:45:46.701Z,92.85
2018-07-16T23:48:17.389Z,93.86
2018-07-16T23:50:48.134Z,94.51
2018-07-16T23:53:18.790Z,94.83
2018-07-16T23:55:49.446Z,94.77
2018-07-16T23:58:19.833Z,95.59
